Relevés horaires Beauvechain (Belgique)


Relevés horaires à Beauvechain - Jeudi 28 Mai 2020
Heure UTC1 Température [°C] Vent [km/h] Hum. [%] Pres.4 [hPa] Visi. [Km] Nébu. [octa] Préc.5 [mm] Cond.
2m. Res. Ros. Dir.2 Vit. Moy. Raf.3
23:00 12.9 12.9 2.1 NE 5.6 -- 7.4 48 1030(0.3/3h) 20 -- -- --
22:00 13.1 13.1 2.3 NE 3.7 -- 7.4 48 1029.9(0.3/3h) 20 2/8 -- --
21:00 13.6 13.6 3.3 NNO 3.7 -- 13.0 50 1029.7(0.0/3h) 20 2/8 -- --
20:00 15.2 15.2 3.5 NE 3.7 -- 11.1 45 1029.5(-0.4/3h) 20 2/8 -- --
19:00 17.3 17.3 3.1 NE 7.4 -- 13.0 39 1029.4(-0.8/3h) 20 1/8 -- --
18:00 19.0 19.0 2.4 ENE 9.3 -- 16.7 33 1029.4(-1.1/3h) 20 1/8 -- --
17:00 19.8 19.8 2.6 NE 9.3 -- 14.8 32 1029.7(-1.3/3h) 20 0/8 -- --
16:00 20.0 20.0 1.4 NE 9.3 -- 16.7 29 1030(-1.3/3h) 20 1/8 -- --
15:00 20.0 20.0 2.7 ENE 9.3 -- 16.7 32 1030.5(-1.5/3h) 20 1/8 -- --
14:00 20.0 20.0 3.4 NE 9.3 -- 16.7 33 1031(-1.6/3h) 20 1/8 -- --
13:00 20.1 20.1 3.9 NE 11.1 -- 16.7 34 1031.5(-1.6/3h) 20 1/8 -- --
12:00 18.8 18.8 4.6 NNE 11.1 -- 25.9 39 1032(-1.4/3h) 20 1/8 -- --
11:00 17.5 17.5 3.9 ENE 9.3 -- 25.9 40 1032.7(-1.1/3h) 20 1/8 -- --
10:00 16.9 16.9 4.9 ENE 9.3 -- 25.9 45 1033.4(-0.4/3h) 20 0/8 -- --
09:00 15.2 14.9 5.4 ENE 9.3 -- 14.8 52 1033.7(-0.1/3h) 20 0/8 -- --
08:00 13.5 13.2 6.6 NE 7.4 -- 14.8 63 1034(0.2/3h) 20 0/8 -- --
07:00 12.3 11.5 6.6 ENE 9.3 -- 13.0 68 1034(0.3/3h) 20 0/8 -- --
06:00 10.4 9.2 5.6 ENE 9.3 -- 13.0 72 1034(0.5/3h) 20 0/8 -- --
05:00 9.2 8.7 5.0 NE 5.6 -- 9.3 75 1034.2(0.6/3h) 20 -- -- --
04:00 8.5 7.9 4.3 NE 5.6 -- 7.4 75 1033.9(0.2/3h) 20 -- -- --
03:00 8.7 8.7 4.7 NE 3.7 -- 9.3 76 1033.7(0.0/3h) 20 -- -- --
02:00 9.1 8.6 7.4 NNE 5.6 -- 9.3 89 1033.5(-0.3/3h) 20 -- -- --
01:00 9.8 9.4 7.1 N 5.6 -- 7.4 83 1033.5(-0.2/3h) 20 -- -- --
00:00 10.1 10.1 6.9 NNO 1.9 -- 14.8 80 1033.7(0.0/3h) 20 -- -- --

1 Coordinated Universal Time. Actuellement il est 21:00 locale et 19:00 UTC.

2 Le vent souffle depuis la direction indiquée vers la direction oposée.

3 Les rafales max. sont disponible 40 min après l'heure du relevé.

4 Pour les stations d'altitude (plus de 600m) le géopotentiel du niveau le plus proche de la pression obligatoire est indiqué.

5 Les stations disposant d'un diffuseur peuvent indiquer "trace". Cela signifie que des précipitations ont touchés le sol mais que la quantité est inférieure à 0.1 mm.

Récapitulatif de la journée
Température [°C] Vent [km/h] Ensoleillement4 [h] Precipitations totale5 [mm] Pression [Hpa]
Min1 Max.2 Moy.3 Max. Min Max.
7.8 20.8 0 25.9 0 h 0 min 0 1029.4 1034.2

1 Température minimale relevée entre 18:00 UTC la veille et 18:00 UTC le jour donné.

2 Température maximale relevée entre 06:00 UTC le jour donné et 06:00 UTC le lendemain.

3 Vent moyen de la journée basé sur les relevés horaires.

4 Ensoleillement en heures relevé entre 06:00 UTC la veille et 06:00 UTC le jour donné.

5 Précipitations totales tombées entre 06:00 UTC la jour donné et 06:00 UTC le lendemain.

Graphiques horaires